createdAt,value
2022-10-07T00:01:01.489Z,59.60
2022-10-07T00:03:30.089Z,59.20
2022-10-07T00:06:05.970Z,59.42
2022-10-07T00:08:36.129Z,59.74
2022-10-07T00:11:11.102Z,59.52
2022-10-07T00:13:40.598Z,59.56
2022-10-07T00:16:30.288Z,59.62
2022-10-07T00:19:00.842Z,59.50
2022-10-07T00:21:32.743Z,59.57
2022-10-07T00:24:01.062Z,59.22
2022-10-07T00:26:31.503Z,59.41
2022-10-07T00:28:59.190Z,59.19
2022-10-07T00:31:30.414Z,59.23
2022-10-07T00:33:58.522Z,59.76
2022-10-07T00:36:32.391Z,59.71
2022-10-07T00:39:06.038Z,59.69
2022-10-07T00:41:48.250Z,59.62
2022-10-07T00:44:45.707Z,59.82
2022-10-07T00:47:31.348Z,59.85
2022-10-07T00:50:03.195Z,59.81
2022-10-07T00:52:35.313Z,59.73
2022-10-07T00:55:10.293Z,60.05
2022-10-07T00:57:38.467Z,60.25
2022-10-07T01:00:07.835Z,60.15
2022-10-07T01:02:36.919Z,59.90
2022-10-07T01:05:23.961Z,59.76
2022-10-07T01:07:53.986Z,59.70
2022-10-07T01:10:24.382Z,60.00
2022-10-07T01:13:23.932Z,60.14
2022-10-07T01:16:12.763Z,60.06
2022-10-07T01:19:07.748Z,60.24
2022-10-07T01:22:21.288Z,60.14
2022-10-07T01:25:26.839Z,60.00
2022-10-07T01:28:01.280Z,60.40
2022-10-07T01:30:31.803Z,60.48
2022-10-07T01:33:05.006Z,60.38
2022-10-07T01:35:35.637Z,60.34
2022-10-07T01:38:09.839Z,60.27
2022-10-07T01:40:57.133Z,60.16
2022-10-07T01:43:24.969Z,60.29
2022-10-07T01:45:53.540Z,60.33
2022-10-07T01:48:20.722Z,60.41
2022-10-07T01:50:51.141Z,60.65
2022-10-07T01:53:56.557Z,60.67
2022-10-07T01:56:46.387Z,61.00
2022-10-07T01:59:51.278Z,60.50
2022-10-07T02:02:43.563Z,60.71
2022-10-07T02:05:54.026Z,60.88
2022-10-07T02:08:46.842Z,60.73
2022-10-07T02:11:23.909Z,61.00
2022-10-07T02:14:00.072Z,60.67
2022-10-07T02:16:44.751Z,60.57
2022-10-07T02:19:36.624Z,60.47
2022-10-07T02:22:06.044Z,60.89
2022-10-07T02:24:35.694Z,60.58
2022-10-07T02:27:13.892Z,60.61
2022-10-07T02:29:45.476Z,60.81
2022-10-07T02:32:19.110Z,60.67
2022-10-07T02:34:52.897Z,61.07
2022-10-07T02:37:26.071Z,60.87
2022-10-07T02:39:55.308Z,61.08
2022-10-07T02:43:00.354Z,60.73
2022-10-07T02:46:02.251Z,60.85
2022-10-07T02:48:36.712Z,60.99
2022-10-07T02:51:10.675Z,60.85
2022-10-07T02:53:39.657Z,60.93
2022-10-07T02:56:08.048Z,61.08
2022-10-07T02:58:36.507Z,60.96
2022-10-07T03:01:06.017Z,61.12
2022-10-07T03:03:33.197Z,60.82
2022-10-07T03:06:05.172Z,60.90
2022-10-07T03:08:33.226Z,60.96
2022-10-07T03:11:01.274Z,60.91
2022-10-07T03:13:29.479Z,61.01
2022-10-07T03:16:00.952Z,61.08
2022-10-07T03:18:29.655Z,61.14
2022-10-07T03:21:11.998Z,61.21
2022-10-07T03:23:39.141Z,61.40
2022-10-07T03:26:06.493Z,61.82
2022-10-07T03:28:38.042Z,61.75
2022-10-07T03:31:12.185Z,61.65
2022-10-07T03:33:44.691Z,61.61
2022-10-07T03:36:13.316Z,61.20
2022-10-07T03:38:42.901Z,61.26
2022-10-07T03:41:11.801Z,61.55
2022-10-07T03:43:39.353Z,61.44
2022-10-07T03:46:07.604Z,61.62
2022-10-07T03:48:37.057Z,61.58
2022-10-07T03:51:04.323Z,61.73
2022-10-07T03:53:34.007Z,61.49
2022-10-07T03:56:02.208Z,61.49
2022-10-07T03:58:30.947Z,61.66
2022-10-07T04:01:08.679Z,61.50
2022-10-07T04:03:37.929Z,61.66
2022-10-07T04:06:06.143Z,61.55
2022-10-07T04:08:35.245Z,61.57
2022-10-07T04:11:04.988Z,61.57
2022-10-07T04:13:34.155Z,61.59
2022-10-07T04:16:11.346Z,61.81
2022-10-07T04:18:39.028Z,61.97
2022-10-07T04:21:07.430Z,61.88
2022-10-07T04:23:37.002Z,61.94
2022-10-07T04:26:09.887Z,61.88
2022-10-07T04:28:38.779Z,62.06
2022-10-07T04:31:12.963Z,62.07
2022-10-07T04:33:44.128Z,62.09
2022-10-07T04:36:13.950Z,62.06
2022-10-07T04:38:50.515Z,62.14
2022-10-07T04:41:20.253Z,62.04
2022-10-07T04:43:57.375Z,61.91
2022-10-07T04:46:28.495Z,61.91
2022-10-07T04:49:01.336Z,62.40
2022-10-07T04:51:31.272Z,62.42
2022-10-07T04:53:59.894Z,62.40
2022-10-07T04:56:35.666Z,62.51
2022-10-07T04:59:06.087Z,62.89
2022-10-07T05:01:33.875Z,63.09
2022-10-07T05:04:01.092Z,63.04
2022-10-07T05:06:29.876Z,63.00
2022-10-07T05:08:56.923Z,63.38
2022-10-07T05:11:25.970Z,63.22
2022-10-07T05:14:06.110Z,63.03
2022-10-07T05:16:33.412Z,62.98
2022-10-07T05:19:00.592Z,63.11
2022-10-07T05:21:28.206Z,63.13
2022-10-07T05:23:55.283Z,62.73
2022-10-07T05:26:28.706Z,62.76
2022-10-07T05:28:58.803Z,62.55
2022-10-07T05:31:32.610Z,62.64
2022-10-07T05:34:02.945Z,62.44
2022-10-07T05:36:30.487Z,62.67
2022-10-07T05:38:59.713Z,62.75
2022-10-07T05:41:45.535Z,62.57
2022-10-07T05:44:14.236Z,62.62
2022-10-07T05:46:42.428Z,62.40
2022-10-07T05:49:10.191Z,62.50
2022-10-07T05:51:37.481Z,62.15
2022-10-07T05:54:05.970Z,61.95
2022-10-07T05:56:39.646Z,62.01
2022-10-07T05:59:07.333Z,62.28
2022-10-07T06:01:34.786Z,62.11
2022-10-07T06:04:08.177Z,61.95
2022-10-07T06:06:38.779Z,61.77
2022-10-07T06:09:27.540Z,61.78
2022-10-07T06:12:14.183Z,61.79
2022-10-07T06:14:42.124Z,61.53
2022-10-07T06:17:09.929Z,61.37
2022-10-07T06:19:38.306Z,61.25
2022-10-07T06:22:05.889Z,61.25
2022-10-07T06:24:35.451Z,61.05
2022-10-07T06:27:03.547Z,60.85
2022-10-07T06:29:31.414Z,60.49
2022-10-07T06:31:59.721Z,60.36
2022-10-07T06:34:27.686Z,60.07
2022-10-07T06:36:58.047Z,59.74
2022-10-07T06:39:25.846Z,59.50
2022-10-07T06:41:54.622Z,59.57
2022-10-07T06:44:39.657Z,59.69
2022-10-07T06:47:11.864Z,59.07
2022-10-07T06:49:40.755Z,59.02
2022-10-07T06:52:07.826Z,58.30
2022-10-07T06:54:35.786Z,58.23
2022-10-07T06:57:15.421Z,58.09
2022-10-07T06:59:51.688Z,57.81
2022-10-07T07:02:19.644Z,57.72
2022-10-07T07:04:47.794Z,57.14
2022-10-07T07:07:15.266Z,56.96
2022-10-07T07:09:42.476Z,56.94
2022-10-07T07:12:11.255Z,56.35
2022-10-07T07:14:44.194Z,56.34
2022-10-07T07:17:16.048Z,56.20
2022-10-07T07:19:43.127Z,55.42
2022-10-07T07:22:10.320Z,54.85
2022-10-07T07:24:38.977Z,54.72
2022-10-07T07:27:06.754Z,54.39
2022-10-07T07:29:34.333Z,54.11
2022-10-07T07:32:04.503Z,53.74
2022-10-07T07:34:38.177Z,53.41
2022-10-07T07:37:07.149Z,52.96
2022-10-07T07:39:39.327Z,52.87
2022-10-07T07:42:12.621Z,52.56
2022-10-07T07:44:40.201Z,52.07
2022-10-07T07:47:12.811Z,51.73
2022-10-07T07:49:40.276Z,52.00
2022-10-07T07:52:10.730Z,51.65
2022-10-07T07:54:43.880Z,51.49
2022-10-07T07:57:11.823Z,51.29
2022-10-07T07:59:39.075Z,51.19
2022-10-07T08:02:08.028Z,50.96
2022-10-07T08:04:37.752Z,50.80
2022-10-07T08:07:05.400Z,50.18
2022-10-07T08:09:33.015Z,50.20
2022-10-07T08:12:00.559Z,50.14
2022-10-07T08:14:28.195Z,49.34
2022-10-07T08:16:57.439Z,49.07
2022-10-07T08:19:29.523Z,48.89
2022-10-07T08:21:58.235Z,48.70
2022-10-07T08:24:27.593Z,48.29
2022-10-07T08:26:54.792Z,48.28
2022-10-07T08:29:22.974Z,48.22
2022-10-07T08:31:50.320Z,47.71
2022-10-07T08:34:17.363Z,47.33
2022-10-07T08:36:47.399Z,47.11
2022-10-07T08:39:15.458Z,47.45
2022-10-07T08:42:36.704Z,47.87
2022-10-07T08:45:08.549Z,47.62
2022-10-07T08:47:45.446Z,47.35
2022-10-07T08:50:45.855Z,47.08
2022-10-07T08:53:21.361Z,47.14
2022-10-07T08:56:07.903Z,46.58
2022-10-07T08:58:52.045Z,45.92
2022-10-07T09:01:53.259Z,45.60
2022-10-07T09:04:54.765Z,45.87
2022-10-07T09:07:48.208Z,45.94
2022-10-07T09:10:31.584Z,45.71
2022-10-07T09:13:14.159Z,45.74
2022-10-07T09:16:00.663Z,45.94
2022-10-07T09:18:41.144Z,45.53
2022-10-07T09:21:17.195Z,44.77
2022-10-07T09:23:45.840Z,45.16
2022-10-07T09:26:16.847Z,45.33
2022-10-07T09:28:44.081Z,44.72
2022-10-07T09:31:15.370Z,44.34
2022-10-07T09:33:45.871Z,44.69
2022-10-07T09:36:18.283Z,44.23
2022-10-07T09:38:49.782Z,43.81
2022-10-07T09:41:21.452Z,43.71
2022-10-07T09:44:16.446Z,43.48
2022-10-07T09:46:53.670Z,43.69
2022-10-07T09:49:29.597Z,43.66
2022-10-07T09:52:06.463Z,43.12
2022-10-07T09:54:36.084Z,42.99
2022-10-07T09:57:05.672Z,43.23
2022-10-07T09:59:37.396Z,42.85
2022-10-07T10:02:13.857Z,42.36
2022-10-07T10:04:57.361Z,42.29
2022-10-07T10:07:36.120Z,42.21
2022-10-07T10:10:06.676Z,41.92
2022-10-07T10:12:45.676Z,41.89
2022-10-07T10:15:39.607Z,41.62
2022-10-07T10:18:36.239Z,41.11
2022-10-07T10:21:36.690Z,40.57
2022-10-07T10:24:10.425Z,40.86
2022-10-07T10:27:01.606Z,40.75
2022-10-07T10:29:42.474Z,40.24
2022-10-07T10:32:33.979Z,40.29
2022-10-07T10:35:09.923Z,39.90
2022-10-07T10:38:23.407Z,39.02
2022-10-07T10:41:06.506Z,39.37
2022-10-07T10:44:32.291Z,38.88
2022-10-07T10:47:31.274Z,38.90
2022-10-07T10:50:16.448Z,38.54
2022-10-07T10:53:17.121Z,37.58
2022-10-07T10:56:06.518Z,37.16
2022-10-07T10:59:09.421Z,36.77
2022-10-07T11:01:43.030Z,37.19
2022-10-07T11:04:41.342Z,36.56
2022-10-07T11:07:25.668Z,36.62
2022-10-07T11:10:06.265Z,34.76
2022-10-07T11:12:42.093Z,33.30
2022-10-07T11:15:32.824Z,32.27
2022-10-07T11:18:10.600Z,30.11
2022-10-07T11:20:48.195Z,28.36
2022-10-07T11:24:11.688Z,26.47
2022-10-07T11:26:57.390Z,25.54
2022-10-07T11:29:48.387Z,25.79
2022-10-07T11:32:26.975Z,27.13
2022-10-07T11:35:45.103Z,26.86
2022-10-07T11:38:14.831Z,25.97
2022-10-07T11:40:54.892Z,24.91
2022-10-07T11:43:38.203Z,25.59
2022-10-07T11:46:33.480Z,25.99
2022-10-07T11:49:36.314Z,23.89
2022-10-07T11:52:08.096Z,23.22
2022-10-07T11:55:00.701Z,22.51
2022-10-07T11:57:36.602Z,22.14
2022-10-07T12:00:31.900Z,21.86
2022-10-07T12:03:17.871Z,22.21
2022-10-07T12:05:51.309Z,21.64
2022-10-07T12:08:35.597Z,21.66
2022-10-07T12:11:12.459Z,21.82
2022-10-07T12:13:45.632Z,21.86
2022-10-07T12:16:31.418Z,22.82
2022-10-07T12:19:10.793Z,22.18
2022-10-07T12:21:59.693Z,21.97
2022-10-07T12:24:28.435Z,20.96
2022-10-07T12:26:58.010Z,21.10
2022-10-07T12:29:34.166Z,20.74
2022-10-07T12:32:01.811Z,20.89
2022-10-07T12:34:40.237Z,21.06
2022-10-07T12:37:39.024Z,22.92
2022-10-07T12:40:18.280Z,22.28
2022-10-07T12:42:55.942Z,21.90
2022-10-07T12:45:27.049Z,22.15
2022-10-07T12:47:58.305Z,22.17
2022-10-07T12:50:26.970Z,22.44
2022-10-07T12:52:56.848Z,23.32
2022-10-07T12:55:32.533Z,22.74
2022-10-07T12:58:20.407Z,23.25
2022-10-07T13:01:33.966Z,22.53
2022-10-07T13:04:42.253Z,22.37
2022-10-07T13:07:46.291Z,22.44
2022-10-07T13:10:37.976Z,22.70
2022-10-07T13:13:26.239Z,23.17
2022-10-07T13:16:22.116Z,24.03
2022-10-07T13:19:03.278Z,23.39
2022-10-07T13:21:51.971Z,23.46
2022-10-07T13:24:24.986Z,23.22
2022-10-07T13:26:52.350Z,23.04
2022-10-07T13:29:30.911Z,22.79
2022-10-07T13:32:17.971Z,23.20
2022-10-07T13:34:46.467Z,23.29
2022-10-07T13:37:30.423Z,22.91
2022-10-07T13:40:19.727Z,24.07
2022-10-07T13:42:54.652Z,23.95
2022-10-07T13:45:22.229Z,24.36
2022-10-07T13:47:50.087Z,24.61
2022-10-07T13:50:23.074Z,24.71
2022-10-07T13:52:51.696Z,24.34
2022-10-07T13:55:34.304Z,24.16
2022-10-07T13:58:05.450Z,23.86
2022-10-07T14:00:44.728Z,23.87
2022-10-07T14:03:17.061Z,23.61
2022-10-07T14:05:53.097Z,22.94
2022-10-07T14:08:24.333Z,22.18
2022-10-07T14:11:18.934Z,22.56
2022-10-07T14:13:46.046Z,22.54
2022-10-07T14:16:22.222Z,22.61
2022-10-07T14:18:50.617Z,22.74
2022-10-07T14:21:18.825Z,22.97
2022-10-07T14:23:47.095Z,23.22
2022-10-07T14:26:16.211Z,22.39
2022-10-07T14:28:43.700Z,21.44
2022-10-07T14:31:39.862Z,21.77
2022-10-07T14:34:38.502Z,22.46
2022-10-07T14:37:19.518Z,22.44
2022-10-07T14:39:50.007Z,22.22
2022-10-07T14:42:36.328Z,22.17
2022-10-07T14:45:08.263Z,22.71
2022-10-07T14:47:38.161Z,23.39
2022-10-07T14:50:06.087Z,23.85
2022-10-07T14:52:44.323Z,25.39
2022-10-07T14:55:29.546Z,27.32
2022-10-07T14:57:56.571Z,28.25
2022-10-07T15:00:34.891Z,28.12
2022-10-07T15:03:06.101Z,29.26
2022-10-07T15:05:33.635Z,29.67
2022-10-07T15:08:01.651Z,29.51
2022-10-07T15:10:28.797Z,30.22
2022-10-07T15:12:59.599Z,30.69
2022-10-07T15:15:26.609Z,31.50
2022-10-07T15:17:53.787Z,31.58
2022-10-07T15:20:21.324Z,32.24
2022-10-07T15:22:50.757Z,32.40
2022-10-07T15:25:19.395Z,32.57
2022-10-07T15:27:46.505Z,32.61
2022-10-07T15:30:14.389Z,33.25
2022-10-07T15:32:41.534Z,33.11
2022-10-07T17:31:14.912Z,46.04
2022-10-07T17:33:43.797Z,46.32
2022-10-07T17:36:12.756Z,45.87
2022-10-07T17:38:43.092Z,45.63
2022-10-07T17:41:32.138Z,46.10
2022-10-07T17:44:02.095Z,46.95
2022-10-07T17:46:33.266Z,47.25
2022-10-07T17:49:02.157Z,46.39
2022-10-07T17:51:32.340Z,46.58
2022-10-07T17:54:01.992Z,47.22
2022-10-07T17:56:32.045Z,46.32
2022-10-07T17:58:59.733Z,46.13
2022-10-07T18:01:31.176Z,46.07
2022-10-07T18:04:05.333Z,47.67
2022-10-07T18:06:36.050Z,48.32
2022-10-07T18:09:09.263Z,47.97
2022-10-07T18:11:55.489Z,47.95
2022-10-07T18:14:41.763Z,48.34
2022-10-07T18:17:10.690Z,49.03
2022-10-07T18:19:39.749Z,49.47
2022-10-07T18:22:07.327Z,49.75
2022-10-07T18:24:34.879Z,49.57
2022-10-07T18:27:03.171Z,49.34
2022-10-07T18:29:33.674Z,49.50
2022-10-07T18:32:01.519Z,50.19
2022-10-07T18:34:28.731Z,50.54
2022-10-07T18:36:57.221Z,50.96
2022-10-07T18:39:29.504Z,51.42
2022-10-07T18:41:57.965Z,51.84
2022-10-07T18:44:25.592Z,52.18
2022-10-07T18:46:53.432Z,52.31
2022-10-07T18:49:20.468Z,52.69
2022-10-07T18:51:50.666Z,52.80
2022-10-07T18:54:21.257Z,53.19
2022-10-07T18:56:49.575Z,53.41
2022-10-07T18:59:18.474Z,53.47
2022-10-07T19:01:50.124Z,53.81
2022-10-07T19:04:18.213Z,54.17
2022-10-07T19:06:46.210Z,54.40
2022-10-07T19:09:18.620Z,54.43
2022-10-07T19:11:46.022Z,54.55
2022-10-07T19:14:14.055Z,54.73
2022-10-07T19:16:48.999Z,55.04
2022-10-07T19:19:22.630Z,55.11
2022-10-07T19:21:53.887Z,55.35
2022-10-07T19:24:41.972Z,55.63
2022-10-07T19:27:09.144Z,55.71
2022-10-07T19:29:36.168Z,56.00
2022-10-07T19:32:07.814Z,55.98
2022-10-07T19:34:35.603Z,56.25
2022-10-07T19:37:02.891Z,56.34
2022-10-07T19:39:30.629Z,56.26
2022-10-07T19:41:58.838Z,56.54
2022-10-07T19:44:26.120Z,56.65
2022-10-07T19:46:54.334Z,56.48
2022-10-07T19:49:22.339Z,56.60
2022-10-07T19:51:49.414Z,56.75
2022-10-07T19:54:16.445Z,56.71
2022-10-07T19:56:44.525Z,57.02
2022-10-07T19:59:13.994Z,57.06
2022-10-07T20:01:44.300Z,57.43
2022-10-07T20:04:21.895Z,57.13
2022-10-07T20:06:49.307Z,57.33
2022-10-07T20:09:18.785Z,57.50
2022-10-07T20:11:49.557Z,57.61
2022-10-07T20:14:16.641Z,57.50
2022-10-07T20:16:44.122Z,57.40
2022-10-07T20:19:18.494Z,57.61
2022-10-07T20:21:46.272Z,58.12
2022-10-07T20:24:16.227Z,58.39
2022-10-07T20:26:44.370Z,58.44
2022-10-07T20:29:13.862Z,58.50
2022-10-07T20:31:42.615Z,58.51
2022-10-07T20:34:15.101Z,58.79
2022-10-07T20:36:42.739Z,59.40
2022-10-07T20:39:37.779Z,59.39
2022-10-07T20:42:21.307Z,59.89
2022-10-07T20:44:49.858Z,60.04
2022-10-07T20:47:18.007Z,60.26
2022-10-07T20:49:45.278Z,60.47
2022-10-07T20:52:21.860Z,60.34
2022-10-07T20:54:50.202Z,60.48
2022-10-07T20:57:23.872Z,60.45
2022-10-07T20:59:51.353Z,60.56
2022-10-07T21:02:21.502Z,60.59
2022-10-07T21:04:48.675Z,60.66
2022-10-07T21:07:17.213Z,60.86
2022-10-07T21:09:44.857Z,61.01
2022-10-07T21:12:15.794Z,60.67
2022-10-07T21:14:44.205Z,60.77
2022-10-07T21:17:11.972Z,60.76
2022-10-07T21:19:40.082Z,60.72
2022-10-07T21:22:07.934Z,60.54
2022-10-07T21:24:35.399Z,60.49
2022-10-07T21:27:06.124Z,60.62
2022-10-07T21:29:38.922Z,60.83
2022-10-07T21:32:06.454Z,61.09
2022-10-07T21:34:33.497Z,60.99
2022-10-07T21:37:00.658Z,61.21
2022-10-07T21:39:27.767Z,61.14
2022-10-07T21:41:54.943Z,61.15
2022-10-07T21:44:22.001Z,61.03
2022-10-07T21:46:49.194Z,61.10
2022-10-07T21:49:17.170Z,61.09
2022-10-07T21:51:44.742Z,61.08
2022-10-07T21:54:14.265Z,61.18
2022-10-07T21:56:43.670Z,61.01
2022-10-07T21:59:11.367Z,60.92
2022-10-07T22:01:38.854Z,61.25
2022-10-07T22:04:07.236Z,61.25
2022-10-07T22:06:52.714Z,61.28
2022-10-07T22:09:21.389Z,61.34
2022-10-07T22:11:50.294Z,61.53
2022-10-07T22:14:18.931Z,61.80
2022-10-07T22:16:48.376Z,61.94
2022-10-07T22:19:17.439Z,61.78
2022-10-07T22:21:45.766Z,61.66
2022-10-07T22:24:13.900Z,61.75
2022-10-07T22:26:48.187Z,61.77
2022-10-07T22:29:17.614Z,61.66
2022-10-07T22:31:45.169Z,61.97
2022-10-07T22:34:32.759Z,62.01
2022-10-07T22:37:00.022Z,62.23
2022-10-07T22:39:28.857Z,62.23
2022-10-07T22:41:57.109Z,62.16
2022-10-07T22:44:28.713Z,62.18
2022-10-07T22:46:56.709Z,62.20
2022-10-07T22:49:28.620Z,62.13
2022-10-07T22:51:58.360Z,62.02
2022-10-07T22:54:26.292Z,62.22
2022-10-07T22:56:53.492Z,62.13
2022-10-07T22:59:21.254Z,62.07
2022-10-07T23:01:48.250Z,62.04
2022-10-07T23:04:15.275Z,62.13
2022-10-07T23:06:42.511Z,62.11
2022-10-07T23:09:09.594Z,62.38
2022-10-07T23:11:36.606Z,62.60
2022-10-07T23:14:04.395Z,62.75
2022-10-07T23:16:32.439Z,62.60
2022-10-07T23:19:00.061Z,62.46
2022-10-07T23:21:30.103Z,62.60
2022-10-07T23:24:05.946Z,62.82
2022-10-07T23:26:35.549Z,62.80
2022-10-07T23:29:04.302Z,62.60
2022-10-07T23:31:32.817Z,62.13
2022-10-07T23:34:01.931Z,62.37
2022-10-07T23:36:29.635Z,62.59
2022-10-07T23:38:59.449Z,62.59
2022-10-07T23:41:30.077Z,62.81
2022-10-07T23:44:00.083Z,62.91
2022-10-07T23:46:28.797Z,62.87
2022-10-07T23:48:56.372Z,62.69
2022-10-07T23:51:27.859Z,62.69
2022-10-07T23:54:00.373Z,62.51
2022-10-07T23:56:27.661Z,62.44
2022-10-07T23:58:54.746Z,62.56
